sensor_id;sensor_type;location;lat;lon;timestamp;pressure;altitude;pressure_sealevel;temperature;humidity
61324;BME280;47203;48.428;11.974;2023-01-27T00:01:31;96834.78;;;6.19;49.68
61324;BME280;47203;48.428;11.974;2023-01-27T00:03:36;96839.19;;;6.19;49.61
61324;BME280;47203;48.428;11.974;2023-01-27T00:05:44;96832.72;;;6.21;49.43
61324;BME280;47203;48.428;11.974;2023-01-27T00:07:49;96834.41;;;6.27;49.56
61324;BME280;47203;48.428;11.974;2023-01-27T00:09:54;96836.53;;;6.31;49.41
61324;BME280;47203;48.428;11.974;2023-01-27T00:11:59;96846.75;;;6.32;49.35
61324;BME280;47203;48.428;11.974;2023-01-27T00:14:16;96831.53;;;6.29;49.41
61324;BME280;47203;48.428;11.974;2023-01-27T00:16:21;96833.94;;;6.31;49.36
61324;BME280;47203;48.428;11.974;2023-01-27T00:18:26;96835.28;;;6.33;49.64
61324;BME280;47203;48.428;11.974;2023-01-27T00:20:31;96834.03;;;6.36;49.44
61324;BME280;47203;48.428;11.974;2023-01-27T00:22:51;96841.88;;;6.36;49.42
61324;BME280;47203;48.428;11.974;2023-01-27T00:25:09;96833.81;;;6.37;49.60
61324;BME280;47203;48.428;11.974;2023-01-27T00:27:13;96835.41;;;6.38;49.41
61324;BME280;47203;48.428;11.974;2023-01-27T00:29:18;96832.53;;;6.40;49.63
61324;BME280;47203;48.428;11.974;2023-01-27T00:31:23;96830.72;;;6.40;49.18
61324;BME280;47203;48.428;11.974;2023-01-27T00:33:41;96831.50;;;6.41;49.49
61324;BME280;47203;48.428;11.974;2023-01-27T00:35:46;96829.69;;;6.41;49.42
61324;BME280;47203;48.428;11.974;2023-01-27T00:37:54;96835.47;;;6.43;49.38
61324;BME280;47203;48.428;11.974;2023-01-27T00:39:59;96828.66;;;6.42;49.32
61324;BME280;47203;48.428;11.974;2023-01-27T00:42:06;96824.13;;;6.38;49.18
61324;BME280;47203;48.428;11.974;2023-01-27T00:44:11;96829.94;;;6.40;49.11
61324;BME280;47203;48.428;11.974;2023-01-27T00:46:17;96840.63;;;6.38;49.30
61324;BME280;47203;48.428;11.974;2023-01-27T00:48:19;96832.44;;;6.35;49.23
61324;BME280;47203;48.428;11.974;2023-01-27T00:50:24;96829.81;;;6.35;49.49
61324;BME280;47203;48.428;11.974;2023-01-27T00:52:30;96834.59;;;6.38;49.40
61324;BME280;47203;48.428;11.974;2023-01-27T00:54:38;96833.03;;;6.37;49.07
61324;BME280;47203;48.428;11.974;2023-01-27T00:56:43;96826.75;;;6.38;49.11
61324;BME280;47203;48.428;11.974;2023-01-27T00:58:48;96835.16;;;6.40;49.44
61324;BME280;47203;48.428;11.974;2023-01-27T01:00:53;96839.34;;;6.41;49.31
61324;BME280;47203;48.428;11.974;2023-01-27T01:03:00;96834.09;;;6.41;49.21
61324;BME280;47203;48.428;11.974;2023-01-27T01:05:05;96836.50;;;6.42;49.26
61324;BME280;47203;48.428;11.974;2023-01-27T01:07:10;96835.22;;;6.45;49.14
61324;BME280;47203;48.428;11.974;2023-01-27T01:09:15;96840.69;;;6.43;49.07
61324;BME280;47203;48.428;11.974;2023-01-27T01:11:24;96842.53;;;6.43;49.24
61324;BME280;47203;48.428;11.974;2023-01-27T01:13:30;96840.47;;;6.45;49.21
61324;BME280;47203;48.428;11.974;2023-01-27T01:15:35;96839.69;;;6.44;48.99
61324;BME280;47203;48.428;11.974;2023-01-27T01:17:40;96844.34;;;6.42;49.06
61324;BME280;47203;48.428;11.974;2023-01-27T01:19:45;96845.38;;;6.41;49.00
61324;BME280;47203;48.428;11.974;2023-01-27T01:21:50;96851.41;;;6.42;49.12
61324;BME280;47203;48.428;11.974;2023-01-27T01:23:55;96851.41;;;6.42;49.05
61324;BME280;47203;48.428;11.974;2023-01-27T01:26:00;96857.19;;;6.44;48.91
61324;BME280;47203;48.428;11.974;2023-01-27T01:28:07;96869.22;;;6.45;49.22
61324;BME280;47203;48.428;11.974;2023-01-27T01:30:13;96865.59;;;6.46;48.94
61324;BME280;47203;48.428;11.974;2023-01-27T01:32:18;96854.13;;;6.47;48.90
61324;BME280;47203;48.428;11.974;2023-01-27T01:34:22;96856.72;;;6.47;48.81
61324;BME280;47203;48.428;11.974;2023-01-27T01:36:27;96846.03;;;6.49;48.87
61324;BME280;47203;48.428;11.974;2023-01-27T01:38:32;96849.44;;;6.49;48.97
61324;BME280;47203;48.428;11.974;2023-01-27T01:40:41;96838.19;;;6.49;48.79
61324;BME280;47203;48.428;11.974;2023-01-27T01:42:56;96844.22;;;6.49;48.89
61324;BME280;47203;48.428;11.974;2023-01-27T01:45:36;96840.81;;;6.49;48.95
61324;BME280;47203;48.428;11.974;2023-01-27T01:47:45;96840.22;;;6.46;48.81
61324;BME280;47203;48.428;11.974;2023-01-27T01:49:49;96843.66;;;6.47;48.60
61324;BME280;47203;48.428;11.974;2023-01-27T01:51:57;96837.38;;;6.48;48.48
61324;BME280;47203;48.428;11.974;2023-01-27T01:54:06;96838.19;;;6.49;48.63
61324;BME280;47203;48.428;11.974;2023-01-27T01:56:16;96841.59;;;6.49;48.76
61324;BME280;47203;48.428;11.974;2023-01-27T01:58:25;96842.38;;;6.50;48.83
61324;BME280;47203;48.428;11.974;2023-01-27T02:00:34;96841.59;;;6.49;48.72
61324;BME280;47203;48.428;11.974;2023-01-27T02:02:39;96840.88;;;6.54;48.77
61324;BME280;47203;48.428;11.974;2023-01-27T02:04:48;96837.72;;;6.52;48.48
61324;BME280;47203;48.428;11.974;2023-01-27T02:06:59;96834.88;;;6.53;48.60
61324;BME280;47203;48.428;11.974;2023-01-27T02:09:06;96838.25;;;6.54;48.63
61324;BME280;47203;48.428;11.974;2023-01-27T02:11:11;96829.63;;;6.53;48.62
61324;BME280;47203;48.428;11.974;2023-01-27T02:13:16;96823.84;;;6.51;48.65
61324;BME280;47203;48.428;11.974;2023-01-27T02:15:21;96823.03;;;6.51;48.54
61324;BME280;47203;48.428;11.974;2023-01-27T02:17:29;96828.28;;;6.51;48.90
61324;BME280;47203;48.428;11.974;2023-01-27T02:19:40;96833.50;;;6.51;48.76
61324;BME280;47203;48.428;11.974;2023-01-27T02:21:49;96838.50;;;6.52;48.73
61324;BME280;47203;48.428;11.974;2023-01-27T02:23:58;96836.13;;;6.51;48.42
61324;BME280;47203;48.428;11.974;2023-01-27T02:26:12;96832.50;;;6.52;48.42
61324;BME280;47203;48.428;11.974;2023-01-27T02:28:19;96830.91;;;6.51;48.79
61324;BME280;47203;48.428;11.974;2023-01-27T02:30:24;96821.69;;;6.48;48.49
61324;BME280;47203;48.428;11.974;2023-01-27T02:32:29;96834.09;;;6.53;48.55
61324;BME280;47203;48.428;11.974;2023-01-27T02:34:36;96826.44;;;6.51;48.78
61324;BME280;47203;48.428;11.974;2023-01-27T02:36:44;96829.06;;;6.51;48.68
61324;BME280;47203;48.428;11.974;2023-01-27T02:38:53;96830.91;;;6.51;48.39
61324;BME280;47203;48.428;11.974;2023-01-27T02:41:03;96829.06;;;6.51;48.47
61324;BME280;47203;48.428;11.974;2023-01-27T02:43:15;96822.25;;;6.50;48.73
61324;BME280;47203;48.428;11.974;2023-01-27T02:45:20;96819.66;;;6.50;48.64
61324;BME280;47203;48.428;11.974;2023-01-27T02:47:26;96819.66;;;6.50;48.57
61324;BME280;47203;48.428;11.974;2023-01-27T02:49:31;96827.72;;;6.49;48.66
61324;BME280;47203;48.428;11.974;2023-01-27T02:51:37;96831.69;;;6.51;48.78
61324;BME280;47203;48.428;11.974;2023-01-27T02:53:43;96824.06;;;6.50;48.48
61324;BME280;47203;48.428;11.974;2023-01-27T02:55:47;96818.84;;;6.50;48.54
61324;BME280;47203;48.428;11.974;2023-01-27T02:57:52;96826.69;;;6.50;48.63
61324;BME280;47203;48.428;11.974;2023-01-27T03:00:27;96821.94;;;6.46;48.67
61324;BME280;47203;48.428;11.974;2023-01-27T03:02:32;96815.13;;;6.45;48.76
61324;BME280;47203;48.428;11.974;2023-01-27T03:04:37;96815.91;;;6.46;48.57
61324;BME280;47203;48.428;11.974;2023-01-27T03:06:42;96814.56;;;6.43;48.84
61324;BME280;47203;48.428;11.974;2023-01-27T03:08:47;96818.28;;;6.47;48.80
61324;BME280;47203;48.428;11.974;2023-01-27T03:10:53;96821.69;;;6.48;48.67
61324;BME280;47203;48.428;11.974;2023-01-27T03:12:59;96821.69;;;6.48;48.72
61324;BME280;47203;48.428;11.974;2023-01-27T03:15:05;96812.50;;;6.45;48.91
61324;BME280;47203;48.428;11.974;2023-01-27T03:17:26;96814.78;;;6.42;48.72
61324;BME280;47203;48.428;11.974;2023-01-27T03:19:43;96818.41;;;6.41;48.80
61324;BME280;47203;48.428;11.974;2023-01-27T03:21:54;96814.78;;;6.42;49.04
61324;BME280;47203;48.428;11.974;2023-01-27T03:24:05;96819.25;;;6.41;49.01
61324;BME280;47203;48.428;11.974;2023-01-27T03:26:10;96821.03;;;6.41;49.02
61324;BME280;47203;48.428;11.974;2023-01-27T03:28:19;96818.41;;;6.41;48.80
61324;BME280;47203;48.428;11.974;2023-01-27T03:30:37;96816.63;;;6.41;48.74
61324;BME280;47203;48.428;11.974;2023-01-27T03:32:54;96814.00;;;6.41;48.96
61324;BME280;47203;48.428;11.974;2023-01-27T03:35:17;96820.81;;;6.42;48.72
61324;BME280;47203;48.428;11.974;2023-01-27T03:37:24;96821.63;;;6.43;48.87
61324;BME280;47203;48.428;11.974;2023-01-27T03:39:41;96823.22;;;6.44;48.62
61324;BME280;47203;48.428;11.974;2023-01-27T03:41:59;96820.03;;;6.42;48.93
61324;BME280;47203;48.428;11.974;2023-01-27T03:44:16;96816.84;;;6.40;48.87
61324;BME280;47203;48.428;11.974;2023-01-27T03:46:34;96814.47;;;6.38;48.92
61324;BME280;47203;48.428;11.974;2023-01-27T03:48:41;96821.50;;;6.38;49.08
61324;BME280;47203;48.428;11.974;2023-01-27T03:50:46;96817.09;;;6.38;49.04
61324;BME280;47203;48.428;11.974;2023-01-27T03:52:53;96815.50;;;6.37;48.80
61324;BME280;47203;48.428;11.974;2023-01-27T03:55:07;96813.34;;;6.34;48.83
61324;BME280;47203;48.428;11.974;2023-01-27T03:57:13;96816.75;;;6.35;48.90
61324;BME280;47203;48.428;11.974;2023-01-27T03:59:18;96819.38;;;6.35;49.05
61324;BME280;47203;48.428;11.974;2023-01-27T04:01:23;96814.13;;;6.35;48.93
61324;BME280;47203;48.428;11.974;2023-01-27T04:03:31;96819.38;;;6.35;49.01
61324;BME280;47203;48.428;11.974;2023-01-27T04:05:51;96813.59;;;6.33;48.96
61324;BME280;47203;48.428;11.974;2023-01-27T04:08:08;96817.00;;;6.33;49.29
61324;BME280;47203;48.428;11.974;2023-01-27T04:10:13;96819.06;;;6.31;48.93
61324;BME280;47203;48.428;11.974;2023-01-27T04:12:18;96816.69;;;6.29;49.22
61324;BME280;47203;48.428;11.974;2023-01-27T04:14:22;96816.69;;;6.29;49.33
61324;BME280;47203;48.428;11.974;2023-01-27T04:16:28;96808.84;;;6.29;49.28
61324;BME280;47203;48.428;11.974;2023-01-27T04:18:33;96816.22;;;6.33;49.20
61324;BME280;47203;48.428;11.974;2023-01-27T04:20:38;96820.63;;;6.32;49.16
61324;BME280;47203;48.428;11.974;2023-01-27T04:22:46;96806.53;;;6.33;49.17
61324;BME280;47203;48.428;11.974;2023-01-27T04:24:51;96815.72;;;6.36;49.28
61324;BME280;47203;48.428;11.974;2023-01-27T04:26:57;96812.88;;;6.37;49.00
61324;BME280;47203;48.428;11.974;2023-01-27T04:29:04;96812.34;;;6.35;48.94
61324;BME280;47203;48.428;11.974;2023-01-27T04:31:08;96813.91;;;6.36;49.15
61324;BME280;47203;48.428;11.974;2023-01-27T04:33:13;96820.97;;;6.36;49.37
61324;BME280;47203;48.428;11.974;2023-01-27T04:35:19;96817.22;;;6.32;49.07
61324;BME280;47203;48.428;11.974;2023-01-27T04:37:34;96811.91;;;6.26;48.95
61324;BME280;47203;48.428;11.974;2023-01-27T04:39:42;96818.94;;;6.26;49.23
61324;BME280;47203;48.428;11.974;2023-01-27T04:41:48;96822.38;;;6.26;49.20
61324;BME280;47203;48.428;11.974;2023-01-27T04:43:53;96822.81;;;6.23;49.31
61324;BME280;47203;48.428;11.974;2023-01-27T04:45:58;96822.56;;;6.25;49.23
61324;BME280;47203;48.428;11.974;2023-01-27T04:48:03;96821.56;;;6.26;49.31
61324;BME280;47203;48.428;11.974;2023-01-27T04:50:10;96822.81;;;6.23;49.31
61324;BME280;47203;48.428;11.974;2023-01-27T04:52:15;96822.81;;;6.23;49.39
61324;BME280;47203;48.428;11.974;2023-01-27T04:54:22;96816.25;;;6.21;49.28
61324;BME280;47203;48.428;11.974;2023-01-27T04:56:31;96828.63;;;6.25;49.22
61324;BME280;47203;48.428;11.974;2023-01-27T04:58:37;96815.56;;;6.25;49.41
61324;BME280;47203;48.428;11.974;2023-01-27T05:00:43;96812.94;;;6.25;49.33
61324;BME280;47203;48.428;11.974;2023-01-27T05:02:48;96816.56;;;6.24;49.40
61324;BME280;47203;48.428;11.974;2023-01-27T05:04:53;96824.75;;;6.28;49.14
61324;BME280;47203;48.428;11.974;2023-01-27T05:06:59;96826.56;;;6.27;49.35
61324;BME280;47203;48.428;11.974;2023-01-27T05:09:03;96825.06;;;6.32;49.11
61324;BME280;47203;48.428;11.974;2023-01-27T05:11:08;96821.66;;;6.31;49.00
61324;BME280;47203;48.428;11.974;2023-01-27T05:13:16;96816.34;;;6.26;49.32
61324;BME280;47203;48.428;11.974;2023-01-27T05:15:21;96829.81;;;6.35;49.02
61324;BME280;47203;48.428;11.974;2023-01-27T05:17:30;96830.84;;;6.34;49.10
61324;BME280;47203;48.428;11.974;2023-01-27T05:19:34;96824.59;;;6.35;49.24
61324;BME280;47203;48.428;11.974;2023-01-27T05:21:40;96833.69;;;6.32;49.13
61324;BME280;47203;48.428;11.974;2023-01-27T05:23:45;96822.38;;;6.26;49.03
61324;BME280;47203;48.428;11.974;2023-01-27T05:25:50;96833.03;;;6.25;49.02
61324;BME280;47203;48.428;11.974;2023-01-27T05:27:55;96838.25;;;6.25;49.36
61324;BME280;47203;48.428;11.974;2023-01-27T05:30:03;96836.94;;;6.22;49.03
61324;BME280;47203;48.428;11.974;2023-01-27T05:32:08;96842.16;;;6.22;49.02
61324;BME280;47203;48.428;11.974;2023-01-27T05:34:13;96844.31;;;6.25;49.16
61324;BME280;47203;48.428;11.974;2023-01-27T05:36:19;96849.06;;;6.28;49.19
61324;BME280;47203;48.428;11.974;2023-01-27T05:38:25;96846.22;;;6.30;49.09
61324;BME280;47203;48.428;11.974;2023-01-27T05:40:29;96855.66;;;6.31;49.03
61324;BME280;47203;48.428;11.974;2023-01-27T05:42:34;96855.06;;;6.29;49.05
61324;BME280;47203;48.428;11.974;2023-01-27T05:44:39;96858.28;;;6.31;49.04
61324;BME280;47203;48.428;11.974;2023-01-27T05:46:46;96869.28;;;6.33;49.18
61324;BME280;47203;48.428;11.974;2023-01-27T05:48:53;96861.66;;;6.32;48.91
61324;BME280;47203;48.428;11.974;2023-01-27T05:50:59;96862.69;;;6.31;49.26
61324;BME280;47203;48.428;11.974;2023-01-27T05:53:04;96867.13;;;6.30;49.02
61324;BME280;47203;48.428;11.974;2023-01-27T05:55:08;96873.94;;;6.31;49.17
61324;BME280;47203;48.428;11.974;2023-01-27T05:57:14;96879.41;;;6.29;49.03
61324;BME280;47203;48.428;11.974;2023-01-27T05:59:19;96879.41;;;6.29;49.16
61324;BME280;47203;48.428;11.974;2023-01-27T06:01:25;96879.06;;;6.26;49.25
61324;BME280;47203;48.428;11.974;2023-01-27T06:03:33;96874.41;;;6.28;49.23
61324;BME280;47203;48.428;11.974;2023-01-27T06:05:39;96878.38;;;6.31;49.01
61324;BME280;47203;48.428;11.974;2023-01-27T06:07:52;96877.03;;;6.28;48.91
61324;BME280;47203;48.428;11.974;2023-01-27T06:09:58;96877.81;;;6.28;49.21
61324;BME280;47203;48.428;11.974;2023-01-27T06:12:03;96879.66;;;6.28;48.94
61324;BME280;47203;48.428;11.974;2023-01-27T06:14:08;96878.59;;;6.29;49.08
61324;BME280;47203;48.428;11.974;2023-01-27T06:16:15;96878.59;;;6.29;49.28
61324;BME280;47203;48.428;11.974;2023-01-27T06:18:21;96880.97;;;6.31;49.16
61324;BME280;47203;48.428;11.974;2023-01-27T06:20:29;96888.03;;;6.30;49.10
61324;BME280;47203;48.428;11.974;2023-01-27T06:22:34;96885.44;;;6.30;49.24
61324;BME280;47203;48.428;11.974;2023-01-27T06:24:39;96885.44;;;6.30;49.10
61324;BME280;47203;48.428;11.974;2023-01-27T06:26:44;96890.41;;;6.32;49.20
61324;BME280;47203;48.428;11.974;2023-01-27T06:28:48;96883.81;;;6.29;48.89
61324;BME280;47203;48.428;11.974;2023-01-27T06:30:53;96891.66;;;6.29;49.14
61324;BME280;47203;48.428;11.974;2023-01-27T06:32:58;96895.34;;;6.28;49.27
61324;BME280;47203;48.428;11.974;2023-01-27T06:35:04;96892.13;;;6.26;49.16
61324;BME280;47203;48.428;11.974;2023-01-27T06:37:12;96890.34;;;6.26;49.04
61324;BME280;47203;48.428;11.974;2023-01-27T06:39:17;96901.56;;;6.27;49.36
61324;BME280;47203;48.428;11.974;2023-01-27T06:41:21;96903.97;;;6.28;48.92
61324;BME280;47203;48.428;11.974;2023-01-27T06:43:27;96902.13;;;6.29;49.02
61324;BME280;47203;48.428;11.974;2023-01-27T06:45:31;96900.09;;;6.31;49.08
61324;BME280;47203;48.428;11.974;2023-01-27T06:47:37;96894.88;;;6.31;48.88
61324;BME280;47203;48.428;11.974;2023-01-27T06:49:42;96897.25;;;6.33;48.91
61324;BME280;47203;48.428;11.974;2023-01-27T06:51:47;96899.63;;;6.34;49.13
61324;BME280;47203;48.428;11.974;2023-01-27T06:53:55;96898.81;;;6.34;48.92
61324;BME280;47203;48.428;11.974;2023-01-27T06:56:00;96900.41;;;6.35;48.91
61324;BME280;47203;48.428;11.974;2023-01-27T06:58:05;96897.78;;;6.35;48.83
61324;BME280;47203;48.428;11.974;2023-01-27T07:00:12;96898.81;;;6.34;48.91
61324;BME280;47203;48.428;11.974;2023-01-27T07:02:17;96897.56;;;6.36;48.95
61324;BME280;47203;48.428;11.974;2023-01-27T07:04:22;96897.00;;;6.34;48.98
61324;BME280;47203;48.428;11.974;2023-01-27T07:06:27;96899.94;;;6.38;48.64
61324;BME280;47203;48.428;11.974;2023-01-27T07:08:32;96895.53;;;6.38;48.92
61324;BME280;47203;48.428;11.974;2023-01-27T07:10:40;96893.47;;;6.40;48.75
61324;BME280;47203;48.428;11.974;2023-01-27T07:12:47;96895.28;;;6.40;48.57
61324;BME280;47203;48.428;11.974;2023-01-27T07:14:52;96896.06;;;6.40;48.61
61324;BME280;47203;48.428;11.974;2023-01-27T07:16:57;96896.63;;;6.42;48.62
61324;BME280;47203;48.428;11.974;2023-01-27T07:19:02;96902.91;;;6.41;48.55
61324;BME280;47203;48.428;11.974;2023-01-27T07:21:07;96901.06;;;6.42;48.71
61324;BME280;47203;48.428;11.974;2023-01-27T07:23:13;96896.63;;;6.42;48.40
61324;BME280;47203;48.428;11.974;2023-01-27T07:25:18;96894.25;;;6.41;48.65
61324;BME280;47203;48.428;11.974;2023-01-27T07:27:25;96891.63;;;6.41;48.91
61324;BME280;47203;48.428;11.974;2023-01-27T07:29:30;96891.63;;;6.41;48.56
61324;BME280;47203;48.428;11.974;2023-01-27T07:31:35;96900.28;;;6.41;48.50
61324;BME280;47203;48.428;11.974;2023-01-27T07:33:40;96900.06;;;6.43;48.58
61324;BME280;47203;48.428;11.974;2023-01-27T07:35:49;96893.00;;;6.43;48.50
61324;BME280;47203;48.428;11.974;2023-01-27T07:37:55;96888.00;;;6.42;48.46
61324;BME280;47203;48.428;11.974;2023-01-27T07:40:00;96893.81;;;6.44;48.66
61324;BME280;47203;48.428;11.974;2023-01-27T07:42:06;96894.81;;;6.43;48.46
61324;BME280;47203;48.428;11.974;2023-01-27T07:44:14;96885.97;;;6.44;48.50
61324;BME280;47203;48.428;11.974;2023-01-27T07:46:19;96889.38;;;6.44;48.45
61324;BME280;47203;48.428;11.974;2023-01-27T07:48:25;96895.38;;;6.45;48.41
61324;BME280;47203;48.428;11.974;2023-01-27T07:50:30;96898.00;;;6.45;48.49
61324;BME280;47203;48.428;11.974;2023-01-27T07:52:35;96902.44;;;6.44;48.31
61324;BME280;47203;48.428;11.974;2023-01-27T07:54:40;96904.03;;;6.45;48.57
61324;BME280;47203;48.428;11.974;2023-01-27T07:56:45;96916.88;;;6.47;48.48
61324;BME280;47203;48.428;11.974;2023-01-27T07:58:53;96915.28;;;6.46;48.70
61324;BME280;47203;48.428;11.974;2023-01-27T08:01:04;96914.50;;;6.45;48.35
61324;BME280;47203;48.428;11.974;2023-01-27T08:03:20;96920.75;;;6.44;48.79
61324;BME280;47203;48.428;11.974;2023-01-27T08:05:26;96919.25;;;6.49;48.41
61324;BME280;47203;48.428;11.974;2023-01-27T08:07:32;96927.88;;;6.49;48.51
61324;BME280;47203;48.428;11.974;2023-01-27T08:09:38;96920.03;;;6.49;48.56
61324;BME280;47203;48.428;11.974;2023-01-27T08:11:43;96920.81;;;6.50;48.81
61324;BME280;47203;48.428;11.974;2023-01-27T08:13:48;96916.41;;;6.50;48.46
61324;BME280;47203;48.428;11.974;2023-01-27T08:15:56;96919.03;;;6.50;48.57
61324;BME280;47203;48.428;11.974;2023-01-27T08:18:04;96915.34;;;6.51;48.44
61324;BME280;47203;48.428;11.974;2023-01-27T08:20:10;96915.34;;;6.51;48.63
61324;BME280;47203;48.428;11.974;2023-01-27T08:22:15;96924.56;;;6.54;48.60
61324;BME280;47203;48.428;11.974;2023-01-27T08:24:24;96922.41;;;6.51;48.87
61324;BME280;47203;48.428;11.974;2023-01-27T08:26:29;96935.59;;;6.56;48.76
61324;BME280;47203;48.428;11.974;2023-01-27T08:28:35;96926.41;;;6.53;48.77
61324;BME280;47203;48.428;11.974;2023-01-27T08:30:41;96933.53;;;6.58;48.87
61324;BME280;47203;48.428;11.974;2023-01-27T08:32:45;96923.31;;;6.56;48.40
61324;BME280;47203;48.428;11.974;2023-01-27T08:34:54;96927.41;;;6.52;48.79
61324;BME280;47203;48.428;11.974;2023-01-27T08:36:59;96929.56;;;6.55;48.68
61324;BME280;47203;48.428;11.974;2023-01-27T08:39:08;96929.31;;;6.57;48.63
61324;BME280;47203;48.428;11.974;2023-01-27T08:41:15;96937.16;;;6.57;48.67
61324;BME280;47203;48.428;11.974;2023-01-27T08:43:20;96946.63;;;6.58;48.52
61324;BME280;47203;48.428;11.974;2023-01-27T08:45:25;96944.78;;;6.58;48.76
61324;BME280;47203;48.428;11.974;2023-01-27T08:47:30;96944.00;;;6.58;48.67
61324;BME280;47203;48.428;11.974;2023-01-27T08:49:36;96952.63;;;6.58;48.50
61324;BME280;47203;48.428;11.974;2023-01-27T08:51:43;96953.44;;;6.59;48.67
61324;BME280;47203;48.428;11.974;2023-01-27T08:53:49;96951.84;;;6.58;48.50
61324;BME280;47203;48.428;11.974;2023-01-27T08:55:56;96956.06;;;6.59;48.54
61324;BME280;47203;48.428;11.974;2023-01-27T08:58:03;96950.81;;;6.59;48.57
61324;BME280;47203;48.428;11.974;2023-01-27T09:00:10;96953.22;;;6.60;48.58
61324;BME280;47203;48.428;11.974;2023-01-27T09:02:17;96955.81;;;6.60;48.81
61324;BME280;47203;48.428;11.974;2023-01-27T09:04:23;96954.81;;;6.61;48.64
61324;BME280;47203;48.428;11.974;2023-01-27T09:06:30;96959.00;;;6.62;48.60
61324;BME280;47203;48.428;11.974;2023-01-27T09:08:38;96956.13;;;6.64;48.45
61324;BME280;47203;48.428;11.974;2023-01-27T09:10:43;96953.53;;;6.64;48.58
61324;BME280;47203;48.428;11.974;2023-01-27T09:12:48;96959.00;;;6.62;48.54
61324;BME280;47203;48.428;11.974;2023-01-27T09:14:54;96962.41;;;6.63;48.56
61324;BME280;47203;48.428;11.974;2023-01-27T09:16:59;96959.47;;;6.59;48.72
61324;BME280;47203;48.428;11.974;2023-01-27T09:19:06;96956.28;;;6.57;48.65
61324;BME280;47203;48.428;11.974;2023-01-27T09:21:11;96958.69;;;6.59;48.73
61324;BME280;47203;48.428;11.974;2023-01-27T09:23:16;96968.09;;;6.60;48.81
61324;BME280;47203;48.428;11.974;2023-01-27T09:25:23;96960.81;;;6.62;48.60
61324;BME280;47203;48.428;11.974;2023-01-27T09:27:28;96954.69;;;6.56;48.84
61324;BME280;47203;48.428;11.974;2023-01-27T09:29:40;96960.03;;;6.61;48.52
61324;BME280;47203;48.428;11.974;2023-01-27T09:31:45;96959.00;;;6.62;48.78
61324;BME280;47203;48.428;11.974;2023-01-27T09:33:50;96964.34;;;6.68;48.59
61324;BME280;47203;48.428;11.974;2023-01-27T09:35:59;96956.72;;;6.66;48.53
61324;BME280;47203;48.428;11.974;2023-01-27T09:38:06;96971.38;;;6.67;48.92
61324;BME280;47203;48.428;11.974;2023-01-27T09:40:21;96977.41;;;6.68;48.49
61324;BME280;47203;48.428;11.974;2023-01-27T09:48:05;96962.38;;;6.75;48.73
61324;BME280;47203;48.428;11.974;2023-01-27T09:50:32;96956.91;;;6.76;48.56
61324;BME280;47203;48.428;11.974;2023-01-27T09:53:04;96966.91;;;6.79;48.73
61324;BME280;47203;48.428;11.974;2023-01-27T09:55:18;96976.34;;;6.80;48.78
61324;BME280;47203;48.428;11.974;2023-01-27T09:57:34;96976.34;;;6.80;48.59
61324;BME280;47203;48.428;11.974;2023-01-27T10:00:00;96969.28;;;6.81;48.68
61324;BME280;47203;48.428;11.974;2023-01-27T10:02:18;96961.19;;;6.82;48.48
61324;BME280;47203;48.428;11.974;2023-01-27T10:04:46;96960.41;;;6.82;48.63
61324;BME280;47203;48.428;11.974;2023-01-27T10:07:14;96976.34;;;6.80;48.71
61324;BME280;47203;48.428;11.974;2023-01-27T10:09:40;96979.53;;;6.82;48.49
61324;BME280;47203;48.428;11.974;2023-01-27T10:11:57;96973.03;;;6.85;48.53
61324;BME280;47203;48.428;11.974;2023-01-27T10:14:13;96971.19;;;6.86;48.62
61324;BME280;47203;48.428;11.974;2023-01-27T10:16:34;96975.41;;;6.87;48.56
61324;BME280;47203;48.428;11.974;2023-01-27T10:19:03;96973.03;;;6.85;48.51
61324;BME280;47203;48.428;11.974;2023-01-27T10:21:17;96982.00;;;6.89;48.57
61324;BME280;47203;48.428;11.974;2023-01-27T10:23:33;96991.78;;;6.94;48.39
61324;BME280;47203;48.428;11.974;2023-01-27T10:25:52;96984.16;;;6.92;48.55
61324;BME280;47203;48.428;11.974;2023-01-27T10:28:01;96983.56;;;6.90;48.26
61324;BME280;47203;48.428;11.974;2023-01-27T10:30:12;96985.41;;;6.90;48.57
61324;BME280;47203;48.428;11.974;2023-01-27T10:32:25;96985.41;;;6.90;48.58
61324;BME280;47203;48.428;11.974;2023-01-27T10:34:34;96982.00;;;6.89;48.40
61324;BME280;47203;48.428;11.974;2023-01-27T10:36:45;96983.56;;;6.90;48.50
61324;BME280;47203;48.428;11.974;2023-01-27T10:39:07;96976.53;;;6.91;48.32
61324;BME280;47203;48.428;11.974;2023-01-27T10:41:25;96977.09;;;6.93;48.62
61324;BME280;47203;48.428;11.974;2023-01-27T10:43:39;96974.78;;;6.96;48.30
61324;BME280;47203;48.428;11.974;2023-01-27T10:45:55;96980.38;;;7.00;48.46
61324;BME280;47203;48.428;11.974;2023-01-27T10:48:17;96987.97;;;7.02;48.15
61324;BME280;47203;48.428;11.974;2023-01-27T10:50:28;96991.38;;;7.02;48.38
61324;BME280;47203;48.428;11.974;2023-01-27T10:52:37;96985.91;;;7.04;48.45
61324;BME280;47203;48.428;11.974;2023-01-27T10:54:46;96969.97;;;7.05;48.46
61324;BME280;47203;48.428;11.974;2023-01-27T10:56:58;96975.78;;;7.07;48.20
61324;BME280;47203;48.428;11.974;2023-01-27T10:59:14;96980.00;;;7.08;48.41
61324;BME280;47203;48.428;11.974;2023-01-27T11:01:24;96980.53;;;7.10;48.28
61324;BME280;47203;48.428;11.974;2023-01-27T11:03:39;96981.56;;;7.09;48.28
61324;BME280;47203;48.428;11.974;2023-01-27T11:05:49;96983.94;;;7.11;48.37
61324;BME280;47203;48.428;11.974;2023-01-27T11:07:57;96993.41;;;7.12;48.24
61324;BME280;47203;48.428;11.974;2023-01-27T11:10:07;96993.16;;;7.13;48.20
61324;BME280;47203;48.428;11.974;2023-01-27T11:12:29;96989.75;;;7.13;48.08
61324;BME280;47203;48.428;11.974;2023-01-27T11:14:42;96987.84;;;7.08;47.86
61324;BME280;47203;48.428;11.974;2023-01-27T11:16:50;96994.34;;;7.06;48.10
61324;BME280;47203;48.428;11.974;2023-01-27T11:19:01;96982.50;;;7.03;48.06
61324;BME280;47203;48.428;11.974;2023-01-27T11:21:10;96982.75;;;7.02;48.29
61324;BME280;47203;48.428;11.974;2023-01-27T11:23:21;96977.28;;;7.03;48.35
61324;BME280;47203;48.428;11.974;2023-01-27T11:25:32;96971.25;;;7.03;48.22